PRMJM KFLL-KTPA
Flight info
| Callsign | PRMJM |
|---|---|
| Flight time | N/A |
| Altitude | 24000 |
| Route | BNICE2 COREA BLFRG3 |
| Aircraft | C25C/M-SDE2E3FGHRWXY/LB1 |
Departure
| Time | 2026-05-04 19:25 |
|---|---|
| Airport | Fort Lauderdale Hollywood International Airport (KFLL) |
Arrival
| Time | N/A |
|---|---|
| Airport | Tampa International Airport (KTPA) |
| Time | Latitude | Longitude | Altitude | Speed | Heading |
|---|---|---|---|---|---|
| 2026-05-04 19:10 | 26.07901 | -80.16317 | 10 ft | 0 kts | 63° |
| 2026-05-04 19:15 | 26.07902 | -80.16314 | 10 ft | 3 kts | 66° |
| 2026-05-04 19:15 | 26.07897 | -80.16312 | 10 ft | 2 kts | 215° |
| 2026-05-04 19:16 | 26.07863 | -80.16423 | 11 ft | 19 kts | 202° |
| 2026-05-04 19:16 | 26.07811 | -80.16454 | 12 ft | 14 kts | 265° |
| 2026-05-04 19:16 | 26.07804 | -80.16556 | 11 ft | 12 kts | 268° |
| 2026-05-04 19:16 | 26.07794 | -80.16627 | 10 ft | 0 kts | 217° |
| 2026-05-04 19:18 | 26.07777 | -80.16637 | 10 ft | 12 kts | 200° |
| 2026-05-04 19:18 | 26.07694 | -80.16579 | 10 ft | 14 kts | 88° |
| 2026-05-04 19:18 | 26.07694 | -80.16549 | 10 ft | 21 kts | 90° |
| 2026-05-04 19:19 | 26.07698 | -80.16085 | 11 ft | 58 kts | 81° |
| 2026-05-04 19:19 | 26.07692 | -80.15890 | 11 ft | 0 kts | 92° |
| 2026-05-04 19:19 | 26.07696 | -80.15857 | 11 ft | 12 kts | 83° |
| 2026-05-04 19:20 | 26.07690 | -80.15716 | 7 ft | 17 kts | 94° |
| 2026-05-04 19:20 | 26.07720 | -80.15674 | 6 ft | 13 kts | 288° |
| 2026-05-04 19:20 | 26.07780 | -80.15746 | 8 ft | 0 kts | 314° |
| 2026-05-04 19:21 | 26.07812 | -80.15804 | 8 ft | 12 kts | 281° |
| 2026-05-04 19:21 | 26.07816 | -80.15888 | 9 ft | 9 kts | 270° |
| 2026-05-04 19:21 | 26.07816 | -80.16002 | 11 ft | 22 kts | 270° |
| 2026-05-04 19:22 | 26.07816 | -80.16217 | 12 ft | 29 kts | 270° |
| 2026-05-04 19:22 | 26.07805 | -80.16431 | 12 ft | 26 kts | 266° |
| 2026-05-04 19:22 | 26.07801 | -80.16612 | 11 ft | 17 kts | 249° |
| 2026-05-04 19:22 | 26.07794 | -80.16623 | 10 ft | 0 kts | 225° |
| 2026-05-04 19:23 | 26.07764 | -80.16641 | 10 ft | 10 kts | 192° |
| 2026-05-04 19:24 | 26.07698 | -80.16607 | 9 ft | 10 kts | 107° |
| 2026-05-04 19:24 | 26.07694 | -80.16393 | 14 ft | 73 kts | 90° |
| 2026-05-04 19:24 | 26.07685 | -80.15491 | 6 ft | 148 kts | 87° |
| 2026-05-04 19:24 | 26.07719 | -80.14308 | 350 ft | 156 kts | 92° |
| 2026-05-04 19:25 | 26.07738 | -80.13033 | 611 ft | 174 kts | 89° |
| 2026-05-04 19:25 | 26.07783 | -80.11513 | 1393 ft | 203 kts | 81° |
| 2026-05-04 19:25 | 26.07987 | -80.10508 | 2416 ft | 202 kts | 71° |
| 2026-05-04 19:25 | 26.08545 | -80.08461 | 4228 ft | 210 kts | 66° |
| 2026-05-04 19:26 | 26.09061 | -80.07532 | 4935 ft | 218 kts | 43° |
| 2026-05-04 19:26 | 26.10815 | -80.06397 | 6380 ft | 227 kts | 17° |
| 2026-05-04 19:26 | 26.11834 | -80.05989 | 7077 ft | 232 kts | 16° |
| 2026-05-04 19:26 | 26.13375 | -80.05392 | 8100 ft | 239 kts | 15° |
| 2026-05-04 19:27 | 26.15518 | -80.04802 | 9478 ft | 239 kts | 351° |
| 2026-05-04 19:27 | 26.16612 | -80.05044 | 10184 ft | 237 kts | 337° |
| 2026-05-04 19:27 | 26.18191 | -80.05609 | 11192 ft | 240 kts | 334° |
| 2026-05-04 19:27 | 26.19756 | -80.06243 | 12205 ft | 243 kts | 333° |
| 2026-05-04 19:28 | 26.21337 | -80.06957 | 13237 ft | 242 kts | 322° |
| 2026-05-04 19:28 | 26.22548 | -80.08208 | 14257 ft | 236 kts | 302° |
| 2026-05-04 19:28 | 26.23284 | -80.09816 | 15238 ft | 234 kts | 287° |
| 2026-05-04 19:28 | 26.23900 | -80.11518 | 16173 ft | 237 kts | 288° |
| 2026-05-04 19:29 | 26.24505 | -80.13222 | 17041 ft | 240 kts | 287° |
| 2026-05-04 19:29 | 26.25127 | -80.14975 | 17898 ft | 244 kts | 287° |
| 2026-05-04 19:29 | 26.25585 | -80.16789 | 18683 ft | 243 kts | 275° |
| 2026-05-04 19:29 | 26.25832 | -80.18663 | 19409 ft | 246 kts | 277° |
| 2026-05-04 19:30 | 26.26114 | -80.20560 | 20152 ft | 249 kts | 276° |
| 2026-05-04 19:30 | 26.26391 | -80.22451 | 20889 ft | 252 kts | 276° |
| 2026-05-04 19:30 | 26.26666 | -80.24399 | 21641 ft | 255 kts | 276° |
| 2026-05-04 19:30 | 26.26945 | -80.26364 | 22405 ft | 258 kts | 276° |
| 2026-05-04 19:31 | 26.27230 | -80.28351 | 23179 ft | 261 kts | 276° |
| 2026-05-04 19:31 | 26.27513 | -80.30342 | 23866 ft | 265 kts | 276° |
| 2026-05-04 19:31 | 26.27811 | -80.32447 | 24036 ft | 287 kts | 276° |
| 2026-05-04 19:31 | 26.28137 | -80.34746 | 24050 ft | 313 kts | 277° |
| 2026-05-04 19:32 | 26.28487 | -80.37229 | 24050 ft | 335 kts | 277° |
| 2026-05-04 19:32 | 26.28866 | -80.39867 | 24052 ft | 353 kts | 277° |
| 2026-05-04 19:32 | 26.29256 | -80.42636 | 24052 ft | 368 kts | 277° |
| 2026-05-04 19:32 | 26.29665 | -80.45507 | 24051 ft | 381 kts | 277° |
| 2026-05-04 19:33 | 26.30076 | -80.48432 | 24052 ft | 391 kts | 277° |
| 2026-05-04 19:33 | 26.30504 | -80.51453 | 24055 ft | 398 kts | 277° |
| 2026-05-04 19:33 | 26.31314 | -80.54415 | 24047 ft | 395 kts | 290° |
| 2026-05-04 19:33 | 26.32538 | -80.57093 | 24048 ft | 379 kts | 294° |
| 2026-05-04 19:34 | 26.33769 | -80.59626 | 24048 ft | 365 kts | 295° |
| 2026-05-04 19:34 | 26.34973 | -80.62067 | 24048 ft | 354 kts | 294° |
| 2026-05-04 19:34 | 26.36134 | -80.64461 | 24042 ft | 345 kts | 294° |
| 2026-05-04 19:34 | 26.37055 | -80.66880 | 24033 ft | 334 kts | 285° |
| 2026-05-04 19:35 | 26.38053 | -80.69177 | 24033 ft | 333 kts | 296° |
| 2026-05-04 19:35 | 26.39284 | -80.71343 | 24029 ft | 328 kts | 297° |
| 2026-05-04 19:35 | 26.40466 | -80.73494 | 24033 ft | 321 kts | 294° |
| 2026-05-04 19:35 | 26.41546 | -80.75660 | 24027 ft | 319 kts | 296° |
| 2026-05-04 19:36 | 26.42698 | -80.77762 | 24032 ft | 316 kts | 297° |
| 2026-05-04 19:36 | 26.43836 | -80.79845 | 24028 ft | 311 kts | 293° |
| 2026-05-04 19:36 | 26.44709 | -80.82032 | 24028 ft | 307 kts | 289° |
| 2026-05-04 19:36 | 26.45570 | -80.84215 | 24024 ft | 306 kts | 291° |
| 2026-05-04 19:37 | 26.46565 | -80.86290 | 24025 ft | 307 kts | 295° |
| 2026-05-04 19:37 | 26.47623 | -80.88352 | 24024 ft | 305 kts | 294° |
| 2026-05-04 19:37 | 26.48639 | -80.90426 | 24024 ft | 303 kts | 294° |
| 2026-05-04 19:37 | 26.49631 | -80.92507 | 24026 ft | 302 kts | 293° |
| 2026-05-04 19:38 | 26.50621 | -80.94576 | 24026 ft | 302 kts | 293° |
| 2026-05-04 19:38 | 26.51622 | -80.96640 | 24023 ft | 301 kts | 294° |
| 2026-05-04 19:38 | 26.52607 | -80.98678 | 24025 ft | 301 kts | 294° |
| 2026-05-04 19:38 | 26.53601 | -81.00735 | 24025 ft | 300 kts | 293° |
| 2026-05-04 19:39 | 26.54588 | -81.02787 | 24025 ft | 300 kts | 294° |
| 2026-05-04 19:39 | 26.55577 | -81.04837 | 24024 ft | 299 kts | 293° |
| 2026-05-04 19:39 | 26.56565 | -81.06885 | 24021 ft | 299 kts | 294° |
| 2026-05-04 19:39 | 26.57548 | -81.08931 | 24022 ft | 299 kts | 293° |
| 2026-05-04 19:40 | 26.58522 | -81.10950 | 24019 ft | 298 kts | 293° |
| 2026-05-04 19:40 | 26.59505 | -81.12995 | 24021 ft | 298 kts | 294° |
| 2026-05-04 19:40 | 26.60487 | -81.15039 | 24019 ft | 298 kts | 293° |
| 2026-05-04 19:40 | 26.61469 | -81.17078 | 24019 ft | 298 kts | 294° |
| 2026-05-04 19:41 | 26.62448 | -81.19120 | 24020 ft | 298 kts | 293° |
| 2026-05-04 19:41 | 26.63437 | -81.21159 | 24021 ft | 298 kts | 295° |
| 2026-05-04 19:41 | 26.64709 | -81.23023 | 24023 ft | 303 kts | 304° |
| 2026-05-04 19:41 | 26.66030 | -81.24850 | 24023 ft | 302 kts | 303° |
| 2026-05-04 19:42 | 26.67343 | -81.26689 | 24022 ft | 302 kts | 303° |
| 2026-05-04 19:42 | 26.68641 | -81.28497 | 24025 ft | 302 kts | 303° |
| 2026-05-04 19:42 | 26.69960 | -81.30325 | 24024 ft | 302 kts | 303° |
| 2026-05-04 19:42 | 26.71280 | -81.32153 | 24024 ft | 302 kts | 303° |
| 2026-05-04 19:43 | 26.72596 | -81.33987 | 24027 ft | 302 kts | 303° |
| 2026-05-04 19:43 | 26.73916 | -81.35820 | 24027 ft | 302 kts | 303° |
| 2026-05-04 19:43 | 26.75234 | -81.37654 | 24027 ft | 302 kts | 303° |
| 2026-05-04 19:43 | 26.76539 | -81.39472 | 24030 ft | 302 kts | 303° |
| 2026-05-04 19:44 | 26.77857 | -81.41303 | 24031 ft | 302 kts | 303° |
| 2026-05-04 19:44 | 26.79171 | -81.43137 | 24027 ft | 302 kts | 303° |
| 2026-05-04 19:44 | 26.80488 | -81.44970 | 24029 ft | 301 kts | 303° |
| 2026-05-04 19:44 | 26.81804 | -81.46803 | 24032 ft | 301 kts | 303° |
| 2026-05-04 19:45 | 26.83101 | -81.48615 | 24033 ft | 301 kts | 303° |
| 2026-05-04 19:45 | 26.84414 | -81.50444 | 24031 ft | 301 kts | 303° |
| 2026-05-04 19:45 | 26.85732 | -81.52284 | 24034 ft | 302 kts | 303° |
| 2026-05-04 19:45 | 26.87044 | -81.54117 | 24031 ft | 302 kts | 303° |
| 2026-05-04 19:46 | 26.88360 | -81.55952 | 24029 ft | 302 kts | 303° |
| 2026-05-04 19:46 | 26.89669 | -81.57785 | 24031 ft | 302 kts | 303° |
| 2026-05-04 19:46 | 26.90985 | -81.59622 | 24034 ft | 302 kts | 303° |
| 2026-05-04 19:46 | 26.92297 | -81.61456 | 24033 ft | 302 kts | 303° |
| 2026-05-04 19:47 | 26.93591 | -81.63269 | 24036 ft | 302 kts | 303° |
| 2026-05-04 19:47 | 26.94906 | -81.65106 | 24040 ft | 302 kts | 303° |
| 2026-05-04 19:47 | 26.96240 | -81.66928 | 24037 ft | 304 kts | 307° |
| 2026-05-04 19:47 | 26.97862 | -81.68586 | 24042 ft | 327 kts | 311° |
| 2026-05-04 19:48 | 26.99601 | -81.70371 | 24045 ft | 350 kts | 312° |
| 2026-05-04 19:48 | 27.01468 | -81.72252 | 24044 ft | 369 kts | 313° |
| 2026-05-04 19:48 | 27.03406 | -81.74192 | 24049 ft | 385 kts | 313° |
| 2026-05-04 19:48 | 27.05436 | -81.76232 | 24051 ft | 398 kts | 313° |
| 2026-05-04 19:49 | 27.07526 | -81.78343 | 24052 ft | 408 kts | 313° |
| 2026-05-04 19:49 | 27.09638 | -81.80490 | 24055 ft | 405 kts | 313° |
| 2026-05-04 19:49 | 27.11712 | -81.82600 | 24051 ft | 397 kts | 313° |
| 2026-05-04 19:49 | 27.13755 | -81.84662 | 24048 ft | 391 kts | 313° |
| 2026-05-04 19:50 | 27.15745 | -81.86663 | 24048 ft | 387 kts | 313° |
| 2026-05-04 19:50 | 27.17641 | -81.88587 | 24050 ft | 383 kts | 312° |
| 2026-05-04 19:50 | 27.19608 | -81.90586 | 24053 ft | 380 kts | 313° |
| 2026-05-04 19:50 | 27.21470 | -81.92466 | 24050 ft | 378 kts | 313° |
| 2026-05-04 19:51 | 27.23424 | -81.94441 | 24053 ft | 379 kts | 313° |
| 2026-05-04 19:51 | 27.25378 | -81.96397 | 23758 ft | 370 kts | 313° |
| 2026-05-04 19:51 | 27.27246 | -81.98281 | 23213 ft | 358 kts | 313° |
| 2026-05-04 19:51 | 27.29061 | -82.00124 | 22739 ft | 345 kts | 312° |
| 2026-05-04 19:52 | 27.30813 | -82.01910 | 22292 ft | 334 kts | 312° |
| 2026-05-04 19:52 | 27.32525 | -82.03648 | 21856 ft | 326 kts | 312° |
| 2026-05-04 19:52 | 27.34192 | -82.05339 | 21429 ft | 319 kts | 312° |
| 2026-05-04 19:52 | 27.35826 | -82.07002 | 21013 ft | 313 kts | 312° |
| 2026-05-04 19:53 | 27.37419 | -82.08607 | 20592 ft | 309 kts | 312° |
| 2026-05-04 19:53 | 27.39063 | -82.10166 | 20176 ft | 308 kts | 316° |
| 2026-05-04 19:53 | 27.40734 | -82.11657 | 19771 ft | 305 kts | 315° |
| 2026-05-04 19:53 | 27.42369 | -82.13160 | 19419 ft | 302 kts | 315° |
| 2026-05-04 19:54 | 27.43990 | -82.14692 | 19072 ft | 306 kts | 314° |
| 2026-05-04 19:54 | 27.45612 | -82.16269 | 18733 ft | 309 kts | 314° |
| 2026-05-04 19:54 | 27.47245 | -82.17871 | 18398 ft | 312 kts | 314° |
| 2026-05-04 19:54 | 27.48882 | -82.19489 | 18022 ft | 314 kts | 314° |
| 2026-05-04 19:55 | 27.50521 | -82.21124 | 17638 ft | 315 kts | 314° |
| 2026-05-04 19:55 | 27.52142 | -82.22749 | 17265 ft | 316 kts | 314° |
| 2026-05-04 19:55 | 27.53777 | -82.24402 | 16658 ft | 309 kts | 314° |
| 2026-05-04 19:55 | 27.55349 | -82.25993 | 15147 ft | 291 kts | 314° |
| 2026-05-04 19:56 | 27.56845 | -82.27536 | 12596 ft | 295 kts | 314° |
| 2026-05-04 19:56 | 27.58338 | -82.29119 | 10323 ft | 291 kts | 314° |
| 2026-05-04 19:56 | 27.59779 | -82.30649 | 8298 ft | 284 kts | 314° |
| 2026-05-04 19:56 | 27.61162 | -82.32144 | 6536 ft | 269 kts | 315° |
| 2026-05-04 19:57 | 27.62472 | -82.33647 | 4559 ft | 269 kts | 315° |
| 2026-05-04 19:57 | 27.63742 | -82.35192 | 3405 ft | 261 kts | 314° |
| 2026-05-04 19:57 | 27.64925 | -82.36670 | 3007 ft | 239 kts | 314° |
| 2026-05-04 19:57 | 27.65982 | -82.37996 | 3062 ft | 215 kts | 313° |
| 2026-05-04 19:58 | 27.66965 | -82.39233 | 3083 ft | 207 kts | 314° |
| 2026-05-04 19:58 | 27.67899 | -82.40434 | 3088 ft | 204 kts | 314° |
| 2026-05-04 19:58 | 27.68842 | -82.41632 | 3094 ft | 205 kts | 313° |
| 2026-05-04 19:58 | 27.69589 | -82.42996 | 3083 ft | 208 kts | 287° |
| 2026-05-04 19:59 | 27.69674 | -82.44616 | 3089 ft | 210 kts | 260° |
| 2026-05-04 19:59 | 27.69093 | -82.46147 | 3089 ft | 215 kts | 233° |
| 2026-05-04 19:59 | 27.68112 | -82.47423 | 3108 ft | 219 kts | 239° |
| 2026-05-04 19:59 | 27.67675 | -82.49071 | 3090 ft | 226 kts | 257° |
| 2026-05-04 20:00 | 27.67401 | -82.50815 | 3102 ft | 226 kts | 262° |
| 2026-05-04 20:00 | 27.67540 | -82.52546 | 3093 ft | 223 kts | 298° |
| 2026-05-04 20:00 | 27.68628 | -82.53707 | 3092 ft | 216 kts | 340° |
| 2026-05-04 20:00 | 27.70090 | -82.53848 | 3080 ft | 211 kts | 8° |
| 2026-05-04 20:01 | 27.71561 | -82.53750 | 3081 ft | 213 kts | 4° |
| 2026-05-04 20:01 | 27.73064 | -82.53700 | 3085 ft | 222 kts | 4° |
| 2026-05-04 20:01 | 27.74649 | -82.53648 | 3088 ft | 230 kts | 4° |
| 2026-05-04 20:01 | 27.76228 | -82.53584 | 3079 ft | 224 kts | 4° |
| 2026-05-04 20:02 | 27.77752 | -82.53536 | 3100 ft | 210 kts | 4° |
| 2026-05-04 20:02 | 27.79144 | -82.53494 | 3079 ft | 192 kts | 4° |
| 2026-05-04 20:02 | 27.80424 | -82.53442 | 3085 ft | 182 kts | 5° |
| 2026-05-04 20:02 | 27.81684 | -82.53401 | 3080 ft | 178 kts | 4° |
| 2026-05-04 20:03 | 27.82913 | -82.53360 | 3066 ft | 175 kts | 5° |
| 2026-05-04 20:03 | 27.84143 | -82.53318 | 3076 ft | 181 kts | 4° |
| 2026-05-04 20:03 | 27.85397 | -82.53276 | 3078 ft | 179 kts | 4° |
| 2026-05-04 20:03 | 27.86629 | -82.53232 | 3076 ft | 179 kts | 5° |
| 2026-05-04 20:04 | 27.87909 | -82.53191 | 2765 ft | 190 kts | 4° |
| 2026-05-04 20:04 | 27.89250 | -82.53145 | 2289 ft | 193 kts | 3° |
| 2026-05-04 20:04 | 27.90545 | -82.53096 | 1753 ft | 180 kts | 6° |
| 2026-05-04 20:04 | 27.91774 | -82.53053 | 1396 ft | 172 kts | 4° |
| 2026-05-04 20:05 | 27.92960 | -82.53016 | 981 ft | 165 kts | 4° |
| 2026-05-04 20:05 | 27.94053 | -82.52983 | 773 ft | 150 kts | 7° |
| 2026-05-04 20:05 | 27.95071 | -82.52944 | 483 ft | 137 kts | 5° |
| 2026-05-04 20:05 | 27.95924 | -82.52918 | 177 ft | 113 kts | 4° |
| 2026-05-04 20:06 | 27.96635 | -82.52897 | 47 ft | 87 kts | 6° |